sensor_id;sensor_type;location;lat;lon;timestamp;P1;durP1;ratioP1;P2;durP2;ratioP2
30697;SDS011;17448;47.200;10.902;2022-07-03T00:00:36;6.72;;;4.05;;
30697;SDS011;17448;47.200;10.902;2022-07-03T00:03:02;8.52;;;3.97;;
30697;SDS011;17448;47.200;10.902;2022-07-03T00:05:28;7.22;;;4.32;;
30697;SDS011;17448;47.200;10.902;2022-07-03T00:07:55;5.55;;;4.05;;
30697;SDS011;17448;47.200;10.902;2022-07-03T00:10:21;4.18;;;3.72;;
30697;SDS011;17448;47.200;10.902;2022-07-03T00:12:47;4.53;;;3.67;;
30697;SDS011;17448;47.200;10.902;2022-07-03T00:15:14;5.18;;;4.13;;
30697;SDS011;17448;47.200;10.902;2022-07-03T00:17:40;6.82;;;4.25;;
30697;SDS011;17448;47.200;10.902;2022-07-03T00:20:06;9.10;;;3.80;;
30697;SDS011;17448;47.200;10.902;2022-07-03T00:22:33;6.95;;;3.85;;
30697;SDS011;17448;47.200;10.902;2022-07-03T00:25:08;5.75;;;3.90;;
30697;SDS011;17448;47.200;10.902;2022-07-03T00:27:36;8.60;;;3.78;;
30697;SDS011;17448;47.200;10.902;2022-07-03T00:30:03;6.43;;;3.38;;
30697;SDS011;17448;47.200;10.902;2022-07-03T00:32:29;5.50;;;3.85;;
30697;SDS011;17448;47.200;10.902;2022-07-03T00:34:56;5.82;;;3.72;;
30697;SDS011;17448;47.200;10.902;2022-07-03T00:37:23;8.77;;;3.65;;
30697;SDS011;17448;47.200;10.902;2022-07-03T00:39:50;4.78;;;3.78;;
30697;SDS011;17448;47.200;10.902;2022-07-03T00:42:16;7.22;;;3.65;;
30697;SDS011;17448;47.200;10.902;2022-07-03T00:44:47;5.45;;;3.35;;
30697;SDS011;17448;47.200;10.902;2022-07-03T00:47:17;4.60;;;3.80;;
30697;SDS011;17448;47.200;10.902;2022-07-03T00:49:45;8.75;;;4.43;;
30697;SDS011;17448;47.200;10.902;2022-07-03T00:52:13;9.50;;;4.20;;
30697;SDS011;17448;47.200;10.902;2022-07-03T00:54:58;5.28;;;3.85;;
30697;SDS011;17448;47.200;10.902;2022-07-03T00:57:29;5.55;;;4.25;;
30697;SDS011;17448;47.200;10.902;2022-07-03T00:59:55;6.55;;;3.78;;
30697;SDS011;17448;47.200;10.902;2022-07-03T01:02:40;7.53;;;3.72;;
30697;SDS011;17448;47.200;10.902;2022-07-03T01:05:12;6.65;;;3.53;;
30697;SDS011;17448;47.200;10.902;2022-07-03T01:20:47;6.13;;;3.92;;
30697;SDS011;17448;47.200;10.902;2022-07-03T01:25:44;5.55;;;4.22;;
30697;SDS011;17448;47.200;10.902;2022-07-03T01:28:13;5.75;;;3.70;;
30697;SDS011;17448;47.200;10.902;2022-07-03T01:30:45;5.47;;;3.90;;
30697;SDS011;17448;47.200;10.902;2022-07-03T01:33:34;5.30;;;4.18;;
30697;SDS011;17448;47.200;10.902;2022-07-03T01:38:27;5.97;;;3.72;;
30697;SDS011;17448;47.200;10.902;2022-07-03T01:40:54;4.22;;;3.78;;
30697;SDS011;17448;47.200;10.902;2022-07-03T01:43:24;6.15;;;4.10;;
30697;SDS011;17448;47.200;10.902;2022-07-03T01:45:51;5.97;;;3.92;;
30697;SDS011;17448;47.200;10.902;2022-07-03T01:48:19;6.43;;;4.00;;
30697;SDS011;17448;47.200;10.902;2022-07-03T01:50:45;4.68;;;3.55;;
30697;SDS011;17448;47.200;10.902;2022-07-03T01:53:12;7.38;;;4.63;;
30697;SDS011;17448;47.200;10.902;2022-07-03T01:55:40;6.28;;;4.18;;
30697;SDS011;17448;47.200;10.902;2022-07-03T01:58:07;5.57;;;3.90;;
30697;SDS011;17448;47.200;10.902;2022-07-03T02:00:41;5.53;;;4.05;;
30697;SDS011;17448;47.200;10.902;2022-07-03T02:03:11;5.00;;;4.45;;
30697;SDS011;17448;47.200;10.902;2022-07-03T02:05:45;4.88;;;4.10;;
30697;SDS011;17448;47.200;10.902;2022-07-03T02:10:39;5.07;;;3.88;;
30697;SDS011;17448;47.200;10.902;2022-07-03T02:13:24;4.25;;;3.80;;
30697;SDS011;17448;47.200;10.902;2022-07-03T02:15:53;5.97;;;4.00;;
30697;SDS011;17448;47.200;10.902;2022-07-03T02:20:51;4.57;;;3.80;;
30697;SDS011;17448;47.200;10.902;2022-07-03T02:23:20;5.80;;;3.85;;
30697;SDS011;17448;47.200;10.902;2022-07-03T02:25:50;5.75;;;3.65;;
30697;SDS011;17448;47.200;10.902;2022-07-03T02:30:43;5.47;;;3.80;;
30697;SDS011;17448;47.200;10.902;2022-07-03T02:33:14;5.90;;;3.88;;
30697;SDS011;17448;47.200;10.902;2022-07-03T02:35:44;8.30;;;3.97;;
30697;SDS011;17448;47.200;10.902;2022-07-03T02:38:16;5.97;;;3.97;;
30697;SDS011;17448;47.200;10.902;2022-07-03T02:45:57;6.07;;;3.47;;
30697;SDS011;17448;47.200;10.902;2022-07-03T02:48:31;4.88;;;4.18;;
30697;SDS011;17448;47.200;10.902;2022-07-03T02:51:04;4.88;;;3.65;;
30697;SDS011;17448;47.200;10.902;2022-07-03T02:53:36;5.18;;;3.63;;
30697;SDS011;17448;47.200;10.902;2022-07-03T03:01:20;7.05;;;4.50;;
30697;SDS011;17448;47.200;10.902;2022-07-03T03:04:07;10.85;;;4.28;;
30697;SDS011;17448;47.200;10.902;2022-07-03T03:06:35;5.40;;;4.45;;
30697;SDS011;17448;47.200;10.902;2022-07-03T03:09:04;7.13;;;4.50;;
30697;SDS011;17448;47.200;10.902;2022-07-03T03:11:43;4.55;;;3.70;;
30697;SDS011;17448;47.200;10.902;2022-07-03T03:14:13;5.10;;;4.05;;
30697;SDS011;17448;47.200;10.902;2022-07-03T03:16:45;5.47;;;3.85;;
30697;SDS011;17448;47.200;10.902;2022-07-03T03:24:20;5.63;;;4.25;;
30697;SDS011;17448;47.200;10.902;2022-07-03T03:26:48;5.85;;;4.65;;
30697;SDS011;17448;47.200;10.902;2022-07-03T03:29:14;5.18;;;4.40;;
30697;SDS011;17448;47.200;10.902;2022-07-03T03:31:40;8.45;;;4.18;;
30697;SDS011;17448;47.200;10.902;2022-07-03T03:34:07;5.95;;;3.85;;
30697;SDS011;17448;47.200;10.902;2022-07-03T03:36:33;6.15;;;4.40;;
30697;SDS011;17448;47.200;10.902;2022-07-03T03:39:00;6.00;;;4.38;;
30697;SDS011;17448;47.200;10.902;2022-07-03T03:41:26;4.60;;;4.13;;
30697;SDS011;17448;47.200;10.902;2022-07-03T03:43:52;5.90;;;4.70;;
30697;SDS011;17448;47.200;10.902;2022-07-03T03:46:19;9.10;;;4.90;;
30697;SDS011;17448;47.200;10.902;2022-07-03T03:48:45;7.88;;;4.28;;
30697;SDS011;17448;47.200;10.902;2022-07-03T03:51:13;6.82;;;4.45;;
30697;SDS011;17448;47.200;10.902;2022-07-03T03:53:40;8.48;;;4.38;;
30697;SDS011;17448;47.200;10.902;2022-07-03T03:56:11;6.68;;;4.85;;
30697;SDS011;17448;47.200;10.902;2022-07-03T03:58:39;4.88;;;4.00;;
30697;SDS011;17448;47.200;10.902;2022-07-03T04:01:06;5.28;;;4.60;;
30697;SDS011;17448;47.200;10.902;2022-07-03T04:03:33;9.05;;;4.65;;
30697;SDS011;17448;47.200;10.902;2022-07-03T04:06:00;5.60;;;4.60;;
30697;SDS011;17448;47.200;10.902;2022-07-03T04:08:26;5.75;;;4.60;;
30697;SDS011;17448;47.200;10.902;2022-07-03T04:10:53;7.97;;;4.95;;
30697;SDS011;17448;47.200;10.902;2022-07-03T04:13:19;6.75;;;4.78;;
30697;SDS011;17448;47.200;10.902;2022-07-03T04:15:46;6.70;;;4.97;;
30697;SDS011;17448;47.200;10.902;2022-07-03T04:18:12;6.38;;;4.65;;
30697;SDS011;17448;47.200;10.902;2022-07-03T04:20:39;7.18;;;5.13;;
30697;SDS011;17448;47.200;10.902;2022-07-03T04:23:05;6.90;;;4.70;;
30697;SDS011;17448;47.200;10.902;2022-07-03T04:25:31;8.75;;;4.88;;
30697;SDS011;17448;47.200;10.902;2022-07-03T04:27:57;7.32;;;5.00;;
30697;SDS011;17448;47.200;10.902;2022-07-03T04:30:26;4.82;;;4.32;;
30697;SDS011;17448;47.200;10.902;2022-07-03T04:32:53;6.82;;;4.75;;
30697;SDS011;17448;47.200;10.902;2022-07-03T04:35:19;4.72;;;4.30;;
30697;SDS011;17448;47.200;10.902;2022-07-03T04:37:46;9.55;;;4.65;;
30697;SDS011;17448;47.200;10.902;2022-07-03T04:40:15;7.80;;;4.75;;
30697;SDS011;17448;47.200;10.902;2022-07-03T04:42:41;6.78;;;4.47;;
30697;SDS011;17448;47.200;10.902;2022-07-03T04:45:08;7.90;;;5.20;;
30697;SDS011;17448;47.200;10.902;2022-07-03T04:47:34;7.97;;;4.90;;
30697;SDS011;17448;47.200;10.902;2022-07-03T04:50:00;8.13;;;4.70;;
30697;SDS011;17448;47.200;10.902;2022-07-03T04:52:26;6.47;;;5.28;;
30697;SDS011;17448;47.200;10.902;2022-07-03T04:54:52;8.18;;;4.90;;
30697;SDS011;17448;47.200;10.902;2022-07-03T04:57:19;6.00;;;5.30;;
30697;SDS011;17448;47.200;10.902;2022-07-03T04:59:45;7.72;;;4.75;;
30697;SDS011;17448;47.200;10.902;2022-07-03T05:02:11;7.07;;;5.80;;
30697;SDS011;17448;47.200;10.902;2022-07-03T05:04:38;8.40;;;5.95;;
30697;SDS011;17448;47.200;10.902;2022-07-03T05:07:05;8.90;;;5.93;;
30697;SDS011;17448;47.200;10.902;2022-07-03T05:09:31;10.68;;;5.32;;
30697;SDS011;17448;47.200;10.902;2022-07-03T05:11:57;6.65;;;5.55;;
30697;SDS011;17448;47.200;10.902;2022-07-03T05:14:23;6.43;;;5.15;;
30697;SDS011;17448;47.200;10.902;2022-07-03T05:16:50;12.48;;;6.05;;
30697;SDS011;17448;47.200;10.902;2022-07-03T05:19:16;8.10;;;5.00;;
30697;SDS011;17448;47.200;10.902;2022-07-03T05:21:43;7.00;;;5.32;;
30697;SDS011;17448;47.200;10.902;2022-07-03T05:24:09;6.68;;;4.97;;
30697;SDS011;17448;47.200;10.902;2022-07-03T05:26:35;5.90;;;5.30;;
30697;SDS011;17448;47.200;10.902;2022-07-03T05:29:02;7.70;;;5.43;;
30697;SDS011;17448;47.200;10.902;2022-07-03T05:31:28;9.70;;;5.15;;
30697;SDS011;17448;47.200;10.902;2022-07-03T05:33:54;5.90;;;5.03;;
30697;SDS011;17448;47.200;10.902;2022-07-03T05:36:20;7.55;;;5.60;;
30697;SDS011;17448;47.200;10.902;2022-07-03T05:38:46;6.80;;;5.32;;
30697;SDS011;17448;47.200;10.902;2022-07-03T05:41:31;7.70;;;5.50;;
30697;SDS011;17448;47.200;10.902;2022-07-03T05:43:57;10.32;;;5.40;;
30697;SDS011;17448;47.200;10.902;2022-07-03T05:46:23;7.97;;;5.45;;
30697;SDS011;17448;47.200;10.902;2022-07-03T05:48:50;5.70;;;4.97;;
30697;SDS011;17448;47.200;10.902;2022-07-03T05:51:16;7.65;;;5.18;;
30697;SDS011;17448;47.200;10.902;2022-07-03T05:53:42;6.47;;;4.97;;
30697;SDS011;17448;47.200;10.902;2022-07-03T05:56:09;11.65;;;6.25;;
30697;SDS011;17448;47.200;10.902;2022-07-03T05:58:35;10.35;;;5.50;;
30697;SDS011;17448;47.200;10.902;2022-07-03T06:01:01;10.13;;;5.65;;
30697;SDS011;17448;47.200;10.902;2022-07-03T06:03:27;6.68;;;5.82;;
30697;SDS011;17448;47.200;10.902;2022-07-03T06:05:53;7.07;;;5.55;;
30697;SDS011;17448;47.200;10.902;2022-07-03T06:08:20;5.85;;;5.22;;
30697;SDS011;17448;47.200;10.902;2022-07-03T06:10:46;7.18;;;5.65;;
30697;SDS011;17448;47.200;10.902;2022-07-03T06:13:12;7.65;;;5.85;;
30697;SDS011;17448;47.200;10.902;2022-07-03T06:15:39;16.45;;;5.55;;
30697;SDS011;17448;47.200;10.902;2022-07-03T06:18:08;11.75;;;5.50;;
30697;SDS011;17448;47.200;10.902;2022-07-03T06:20:34;6.95;;;5.30;;
30697;SDS011;17448;47.200;10.902;2022-07-03T06:23:01;10.15;;;5.95;;
30697;SDS011;17448;47.200;10.902;2022-07-03T06:25:27;8.10;;;6.28;;
30697;SDS011;17448;47.200;10.902;2022-07-03T06:27:53;8.38;;;5.68;;
30697;SDS011;17448;47.200;10.902;2022-07-03T06:30:19;7.43;;;6.22;;
30697;SDS011;17448;47.200;10.902;2022-07-03T06:32:45;10.23;;;5.00;;
30697;SDS011;17448;47.200;10.902;2022-07-03T06:35:12;5.95;;;5.18;;
30697;SDS011;17448;47.200;10.902;2022-07-03T06:37:38;6.97;;;5.43;;
30697;SDS011;17448;47.200;10.902;2022-07-03T06:40:05;6.53;;;5.00;;
30697;SDS011;17448;47.200;10.902;2022-07-03T06:42:31;7.93;;;5.68;;
30697;SDS011;17448;47.200;10.902;2022-07-03T06:44:58;7.65;;;5.40;;
30697;SDS011;17448;47.200;10.902;2022-07-03T06:47:24;8.45;;;5.28;;
30697;SDS011;17448;47.200;10.902;2022-07-03T06:49:50;6.10;;;4.70;;
30697;SDS011;17448;47.200;10.902;2022-07-03T06:52:17;5.47;;;4.97;;
30697;SDS011;17448;47.200;10.902;2022-07-03T06:54:43;6.20;;;4.55;;
30697;SDS011;17448;47.200;10.902;2022-07-03T06:57:10;9.10;;;5.15;;
30697;SDS011;17448;47.200;10.902;2022-07-03T06:59:36;8.88;;;5.20;;
30697;SDS011;17448;47.200;10.902;2022-07-03T07:02:03;6.40;;;4.88;;
30697;SDS011;17448;47.200;10.902;2022-07-03T07:04:29;9.38;;;5.20;;
30697;SDS011;17448;47.200;10.902;2022-07-03T07:06:55;6.00;;;5.03;;
30697;SDS011;17448;47.200;10.902;2022-07-03T07:09:22;6.03;;;4.90;;
30697;SDS011;17448;47.200;10.902;2022-07-03T07:11:48;6.20;;;5.60;;
30697;SDS011;17448;47.200;10.902;2022-07-03T07:14:14;11.02;;;5.72;;
30697;SDS011;17448;47.200;10.902;2022-07-03T07:16:40;6.78;;;5.38;;
30697;SDS011;17448;47.200;10.902;2022-07-03T07:19:07;11.70;;;5.55;;
30697;SDS011;17448;47.200;10.902;2022-07-03T07:21:33;5.45;;;4.93;;
30697;SDS011;17448;47.200;10.902;2022-07-03T07:23:59;6.80;;;5.47;;
30697;SDS011;17448;47.200;10.902;2022-07-03T07:26:26;7.28;;;5.00;;
30697;SDS011;17448;47.200;10.902;2022-07-03T07:28:53;8.75;;;4.82;;
30697;SDS011;17448;47.200;10.902;2022-07-03T07:31:19;5.85;;;5.28;;
30697;SDS011;17448;47.200;10.902;2022-07-03T07:33:46;7.07;;;5.00;;
30697;SDS011;17448;47.200;10.902;2022-07-03T07:36:12;5.93;;;5.32;;
30697;SDS011;17448;47.200;10.902;2022-07-03T07:38:38;6.50;;;4.40;;
30697;SDS011;17448;47.200;10.902;2022-07-03T07:41:04;6.30;;;4.93;;
30697;SDS011;17448;47.200;10.902;2022-07-03T07:43:30;7.40;;;5.18;;
30697;SDS011;17448;47.200;10.902;2022-07-03T07:45:56;8.07;;;5.50;;
30697;SDS011;17448;47.200;10.902;2022-07-03T07:48:23;5.30;;;4.75;;
30697;SDS011;17448;47.200;10.902;2022-07-03T07:50:49;8.00;;;4.43;;
30697;SDS011;17448;47.200;10.902;2022-07-03T07:53:15;9.95;;;5.63;;
30697;SDS011;17448;47.200;10.902;2022-07-03T07:55:41;6.18;;;4.70;;
30697;SDS011;17448;47.200;10.902;2022-07-03T07:58:08;6.47;;;4.43;;
30697;SDS011;17448;47.200;10.902;2022-07-03T08:00:34;5.18;;;4.35;;
30697;SDS011;17448;47.200;10.902;2022-07-03T08:03:01;7.28;;;5.13;;
30697;SDS011;17448;47.200;10.902;2022-07-03T08:05:45;6.53;;;4.60;;
30697;SDS011;17448;47.200;10.902;2022-07-03T08:08:14;5.30;;;4.80;;
30697;SDS011;17448;47.200;10.902;2022-07-03T08:10:44;6.70;;;4.55;;
30697;SDS011;17448;47.200;10.902;2022-07-03T08:13:11;5.50;;;5.00;;
30697;SDS011;17448;47.200;10.902;2022-07-03T08:15:38;8.02;;;5.05;;
30697;SDS011;17448;47.200;10.902;2022-07-03T08:18:04;8.77;;;5.40;;
30697;SDS011;17448;47.200;10.902;2022-07-03T08:20:30;7.15;;;4.80;;
30697;SDS011;17448;47.200;10.902;2022-07-03T08:22:56;7.20;;;5.07;;
30697;SDS011;17448;47.200;10.902;2022-07-03T08:25:23;5.72;;;5.00;;
30697;SDS011;17448;47.200;10.902;2022-07-03T08:27:49;6.63;;;4.82;;
30697;SDS011;17448;47.200;10.902;2022-07-03T08:30:15;5.82;;;4.70;;
30697;SDS011;17448;47.200;10.902;2022-07-03T08:32:52;6.05;;;5.03;;
30697;SDS011;17448;47.200;10.902;2022-07-03T08:35:19;6.82;;;4.78;;
30697;SDS011;17448;47.200;10.902;2022-07-03T08:37:46;5.65;;;5.05;;
30697;SDS011;17448;47.200;10.902;2022-07-03T08:40:13;5.82;;;4.55;;
30697;SDS011;17448;47.200;10.902;2022-07-03T08:42:43;6.40;;;4.82;;
30697;SDS011;17448;47.200;10.902;2022-07-03T08:45:15;6.95;;;4.60;;
30697;SDS011;17448;47.200;10.902;2022-07-03T08:47:43;6.78;;;4.80;;
30697;SDS011;17448;47.200;10.902;2022-07-03T08:50:10;5.75;;;5.10;;
30697;SDS011;17448;47.200;10.902;2022-07-03T08:52:37;6.53;;;4.38;;
30697;SDS011;17448;47.200;10.902;2022-07-03T08:55:04;5.43;;;4.47;;
30697;SDS011;17448;47.200;10.902;2022-07-03T08:57:31;6.25;;;4.65;;
30697;SDS011;17448;47.200;10.902;2022-07-03T09:00:04;7.00;;;4.65;;
30697;SDS011;17448;47.200;10.902;2022-07-03T09:02:32;4.85;;;4.25;;
30697;SDS011;17448;47.200;10.902;2022-07-03T09:04:59;5.30;;;4.78;;
30697;SDS011;17448;47.200;10.902;2022-07-03T09:07:27;4.82;;;4.32;;
30697;SDS011;17448;47.200;10.902;2022-07-03T09:09:53;4.53;;;4.10;;
30697;SDS011;17448;47.200;10.902;2022-07-03T09:12:20;5.85;;;4.40;;
30697;SDS011;17448;47.200;10.902;2022-07-03T09:14:47;7.13;;;4.40;;
30697;SDS011;17448;47.200;10.902;2022-07-03T09:17:13;5.43;;;4.63;;
30697;SDS011;17448;47.200;10.902;2022-07-03T09:22:24;5.07;;;4.40;;
30697;SDS011;17448;47.200;10.902;2022-07-03T09:25:02;6.00;;;4.13;;
30697;SDS011;17448;47.200;10.902;2022-07-03T09:27:48;6.97;;;4.03;;
30697;SDS011;17448;47.200;10.902;2022-07-03T09:30:15;5.10;;;4.57;;
30697;SDS011;17448;47.200;10.902;2022-07-03T09:32:42;5.03;;;4.53;;
30697;SDS011;17448;47.200;10.902;2022-07-03T09:35:23;7.43;;;4.22;;
30697;SDS011;17448;47.200;10.902;2022-07-03T09:37:50;4.50;;;4.10;;
30697;SDS011;17448;47.200;10.902;2022-07-03T09:40:27;7.63;;;4.43;;
30697;SDS011;17448;47.200;10.902;2022-07-03T09:45:47;5.65;;;4.10;;
30697;SDS011;17448;47.200;10.902;2022-07-03T09:50:45;4.55;;;4.15;;
30697;SDS011;17448;47.200;10.902;2022-07-03T09:53:11;5.40;;;4.80;;
30697;SDS011;17448;47.200;10.902;2022-07-03T09:55:37;5.15;;;4.30;;
30697;SDS011;17448;47.200;10.902;2022-07-03T09:58:06;5.55;;;4.38;;
30697;SDS011;17448;47.200;10.902;2022-07-03T10:00:32;5.93;;;4.28;;
30697;SDS011;17448;47.200;10.902;2022-07-03T10:03:01;8.75;;;4.50;;
30697;SDS011;17448;47.200;10.902;2022-07-03T10:07:57;4.78;;;4.28;;
30697;SDS011;17448;47.200;10.902;2022-07-03T10:10:25;7.22;;;3.88;;
30697;SDS011;17448;47.200;10.902;2022-07-03T10:12:52;4.47;;;3.85;;
30697;SDS011;17448;47.200;10.902;2022-07-03T10:15:19;5.38;;;4.32;;
30697;SDS011;17448;47.200;10.902;2022-07-03T10:17:49;12.43;;;4.88;;
30697;SDS011;17448;47.200;10.902;2022-07-03T10:20:35;7.47;;;4.13;;
30697;SDS011;17448;47.200;10.902;2022-07-03T10:23:02;4.28;;;3.80;;
30697;SDS011;17448;47.200;10.902;2022-07-03T10:25:29;4.45;;;3.85;;
30697;SDS011;17448;47.200;10.902;2022-07-03T10:27:55;6.20;;;3.80;;
30697;SDS011;17448;47.200;10.902;2022-07-03T10:30:23;5.00;;;3.85;;
30697;SDS011;17448;47.200;10.902;2022-07-03T10:32:51;4.15;;;3.67;;
30697;SDS011;17448;47.200;10.902;2022-07-03T10:35:23;6.05;;;3.85;;
30697;SDS011;17448;47.200;10.902;2022-07-03T10:37:56;5.18;;;3.60;;
30697;SDS011;17448;47.200;10.902;2022-07-03T10:43:14;6.72;;;4.03;;
30697;SDS011;17448;47.200;10.902;2022-07-03T10:46:10;4.00;;;3.70;;
30697;SDS011;17448;47.200;10.902;2022-07-03T10:51:15;4.80;;;4.30;;
30697;SDS011;17448;47.200;10.902;2022-07-03T10:53:44;4.35;;;3.60;;
30697;SDS011;17448;47.200;10.902;2022-07-03T10:56:10;5.07;;;3.70;;
30697;SDS011;17448;47.200;10.902;2022-07-03T10:58:56;5.95;;;3.60;;
30697;SDS011;17448;47.200;10.902;2022-07-03T11:01:28;4.10;;;3.00;;
30697;SDS011;17448;47.200;10.902;2022-07-03T11:03:58;3.80;;;3.45;;
30697;SDS011;17448;47.200;10.902;2022-07-03T11:09:08;3.97;;;3.55;;
30697;SDS011;17448;47.200;10.902;2022-07-03T11:11:41;4.55;;;3.47;;
30697;SDS011;17448;47.200;10.902;2022-07-03T11:14:29;4.43;;;3.75;;
30697;SDS011;17448;47.200;10.902;2022-07-03T11:20:00;6.25;;;3.50;;
30697;SDS011;17448;47.200;10.902;2022-07-03T11:25:16;4.38;;;2.72;;
30697;SDS011;17448;47.200;10.902;2022-07-03T11:27:44;5.68;;;2.97;;
30697;SDS011;17448;47.200;10.902;2022-07-03T11:30:13;2.72;;;2.42;;
30697;SDS011;17448;47.200;10.902;2022-07-03T11:32:42;4.35;;;2.47;;
30697;SDS011;17448;47.200;10.902;2022-07-03T11:37:41;3.00;;;2.40;;
30697;SDS011;17448;47.200;10.902;2022-07-03T11:45:55;5.63;;;2.80;;
30697;SDS011;17448;47.200;10.902;2022-07-03T11:48:22;3.05;;;2.70;;
30697;SDS011;17448;47.200;10.902;2022-07-03T11:50:49;3.38;;;2.63;;
30697;SDS011;17448;47.200;10.902;2022-07-03T11:53:22;4.70;;;2.63;;
30697;SDS011;17448;47.200;10.902;2022-07-03T11:55:50;5.57;;;2.60;;
30697;SDS011;17448;47.200;10.902;2022-07-03T11:58:17;3.28;;;2.80;;
30697;SDS011;17448;47.200;10.902;2022-07-03T12:00:44;5.80;;;2.60;;
30697;SDS011;17448;47.200;10.902;2022-07-03T12:03:14;3.17;;;2.50;;
30697;SDS011;17448;47.200;10.902;2022-07-03T12:05:50;3.00;;;2.45;;
30697;SDS011;17448;47.200;10.902;2022-07-03T12:08:24;3.38;;;2.30;;
30697;SDS011;17448;47.200;10.902;2022-07-03T12:11:00;3.08;;;2.35;;
30697;SDS011;17448;47.200;10.902;2022-07-03T12:13:28;4.65;;;2.47;;
30697;SDS011;17448;47.200;10.902;2022-07-03T12:16:06;5.30;;;2.83;;
30697;SDS011;17448;47.200;10.902;2022-07-03T12:18:46;5.00;;;2.50;;
30697;SDS011;17448;47.200;10.902;2022-07-03T12:21:13;2.80;;;2.15;;
30697;SDS011;17448;47.200;10.902;2022-07-03T12:23:46;2.92;;;2.35;;
30697;SDS011;17448;47.200;10.902;2022-07-03T12:26:13;3.03;;;1.80;;
30697;SDS011;17448;47.200;10.902;2022-07-03T12:28:40;3.03;;;2.10;;
30697;SDS011;17448;47.200;10.902;2022-07-03T12:31:06;2.35;;;2.10;;
30697;SDS011;17448;47.200;10.902;2022-07-03T12:33:33;4.97;;;2.28;;
30697;SDS011;17448;47.200;10.902;2022-07-03T12:38:29;4.97;;;1.70;;
30697;SDS011;17448;47.200;10.902;2022-07-03T12:41:02;3.13;;;2.17;;
30697;SDS011;17448;47.200;10.902;2022-07-03T12:43:35;4.57;;;2.30;;
30697;SDS011;17448;47.200;10.902;2022-07-03T12:46:02;3.90;;;2.10;;
30697;SDS011;17448;47.200;10.902;2022-07-03T12:48:30;3.33;;;1.90;;
30697;SDS011;17448;47.200;10.902;2022-07-03T12:51:49;3.42;;;1.95;;
30697;SDS011;17448;47.200;10.902;2022-07-03T12:54:21;4.28;;;2.20;;
30697;SDS011;17448;47.200;10.902;2022-07-03T12:57:07;2.47;;;2.00;;
30697;SDS011;17448;47.200;10.902;2022-07-03T13:00:06;3.42;;;2.30;;
30697;SDS011;17448;47.200;10.902;2022-07-03T13:02:33;3.13;;;2.05;;
30697;SDS011;17448;47.200;10.902;2022-07-03T13:05:00;5.15;;;2.45;;
30697;SDS011;17448;47.200;10.902;2022-07-03T13:07:27;3.60;;;2.13;;
30697;SDS011;17448;47.200;10.902;2022-07-03T13:09:54;3.50;;;1.90;;
30697;SDS011;17448;47.200;10.902;2022-07-03T13:12:20;4.38;;;2.38;;
30697;SDS011;17448;47.200;10.902;2022-07-03T13:14:54;2.80;;;2.10;;
30697;SDS011;17448;47.200;10.902;2022-07-03T13:17:20;3.72;;;2.10;;
30697;SDS011;17448;47.200;10.902;2022-07-03T13:19:47;4.88;;;1.80;;
30697;SDS011;17448;47.200;10.902;2022-07-03T13:22:13;4.65;;;2.30;;
30697;SDS011;17448;47.200;10.902;2022-07-03T13:24:39;3.83;;;2.00;;
30697;SDS011;17448;47.200;10.902;2022-07-03T13:27:05;2.50;;;2.00;;
30697;SDS011;17448;47.200;10.902;2022-07-03T13:29:32;3.95;;;2.28;;
30697;SDS011;17448;47.200;10.902;2022-07-03T13:31:58;5.07;;;2.10;;
30697;SDS011;17448;47.200;10.902;2022-07-03T13:34:24;2.03;;;1.83;;
30697;SDS011;17448;47.200;10.902;2022-07-03T13:36:56;2.25;;;1.80;;
30697;SDS011;17448;47.200;10.902;2022-07-03T13:39:46;3.72;;;1.88;;
30697;SDS011;17448;47.200;10.902;2022-07-03T13:42:12;3.22;;;1.90;;
30697;SDS011;17448;47.200;10.902;2022-07-03T13:44:39;2.72;;;1.95;;
30697;SDS011;17448;47.200;10.902;2022-07-03T13:47:05;6.25;;;2.17;;
30697;SDS011;17448;47.200;10.902;2022-07-03T13:49:32;5.88;;;2.08;;
30697;SDS011;17448;47.200;10.902;2022-07-03T13:51:59;2.42;;;1.98;;
30697;SDS011;17448;47.200;10.902;2022-07-03T13:54:25;3.20;;;2.15;;
30697;SDS011;17448;47.200;10.902;2022-07-03T13:56:51;5.13;;;1.92;;
30697;SDS011;17448;47.200;10.902;2022-07-03T13:59:18;2.88;;;1.85;;
30697;SDS011;17448;47.200;10.902;2022-07-03T14:01:45;3.45;;;1.88;;
30697;SDS011;17448;47.200;10.902;2022-07-03T14:04:13;3.15;;;1.88;;
30697;SDS011;17448;47.200;10.902;2022-07-03T14:06:39;2.38;;;1.88;;
30697;SDS011;17448;47.200;10.902;2022-07-03T14:09:06;3.22;;;1.75;;
30697;SDS011;17448;47.200;10.902;2022-07-03T14:11:32;2.80;;;1.92;;
30697;SDS011;17448;47.200;10.902;2022-07-03T14:13:58;5.72;;;2.10;;
30697;SDS011;17448;47.200;10.902;2022-07-03T14:16:25;2.22;;;1.95;;
30697;SDS011;17448;47.200;10.902;2022-07-03T14:18:52;2.55;;;1.85;;
30697;SDS011;17448;47.200;10.902;2022-07-03T14:21:22;5.68;;;1.90;;
30697;SDS011;17448;47.200;10.902;2022-07-03T14:24:14;3.35;;;2.00;;
30697;SDS011;17448;47.200;10.902;2022-07-03T14:26:41;3.90;;;2.28;;
30697;SDS011;17448;47.200;10.902;2022-07-03T14:29:27;4.18;;;1.80;;
30697;SDS011;17448;47.200;10.902;2022-07-03T14:32:36;4.53;;;1.88;;
30697;SDS011;17448;47.200;10.902;2022-07-03T14:35:02;2.53;;;1.98;;
30697;SDS011;17448;47.200;10.902;2022-07-03T14:37:28;4.10;;;1.75;;
30697;SDS011;17448;47.200;10.902;2022-07-03T14:39:55;4.05;;;1.85;;
30697;SDS011;17448;47.200;10.902;2022-07-03T14:42:21;5.68;;;2.22;;
30697;SDS011;17448;47.200;10.902;2022-07-03T14:44:47;3.10;;;1.70;;
30697;SDS011;17448;47.200;10.902;2022-07-03T14:47:14;3.85;;;1.75;;
30697;SDS011;17448;47.200;10.902;2022-07-03T14:49:41;3.67;;;1.90;;
30697;SDS011;17448;47.200;10.902;2022-07-03T14:52:12;5.13;;;1.70;;
30697;SDS011;17448;47.200;10.902;2022-07-03T14:54:55;3.60;;;1.75;;
30697;SDS011;17448;47.200;10.902;2022-07-03T14:57:36;5.47;;;1.85;;
30697;SDS011;17448;47.200;10.902;2022-07-03T15:02:33;4.40;;;1.92;;
30697;SDS011;17448;47.200;10.902;2022-07-03T15:07:41;2.50;;;1.77;;
30697;SDS011;17448;47.200;10.902;2022-07-03T15:10:08;5.55;;;2.10;;
30697;SDS011;17448;47.200;10.902;2022-07-03T15:12:36;4.10;;;1.90;;
30697;SDS011;17448;47.200;10.902;2022-07-03T15:15:03;6.20;;;2.20;;
30697;SDS011;17448;47.200;10.902;2022-07-03T15:17:30;2.83;;;1.80;;
30697;SDS011;17448;47.200;10.902;2022-07-03T15:20:01;4.03;;;2.03;;
30697;SDS011;17448;47.200;10.902;2022-07-03T15:22:27;4.72;;;2.03;;
30697;SDS011;17448;47.200;10.902;2022-07-03T15:25:04;3.00;;;1.63;;
30697;SDS011;17448;47.200;10.902;2022-07-03T15:29:57;2.38;;;1.88;;
30697;SDS011;17448;47.200;10.902;2022-07-03T15:32:32;3.28;;;2.15;;
30697;SDS011;17448;47.200;10.902;2022-07-03T15:34:59;2.58;;;1.75;;
30697;SDS011;17448;47.200;10.902;2022-07-03T15:37:35;1.80;;;1.67;;
30697;SDS011;17448;47.200;10.902;2022-07-03T15:40:04;5.78;;;2.08;;
30697;SDS011;17448;47.200;10.902;2022-07-03T15:47:38;1.90;;;1.70;;
30697;SDS011;17448;47.200;10.902;2022-07-03T15:50:21;4.68;;;1.95;;
30697;SDS011;17448;47.200;10.902;2022-07-03T15:52:52;5.60;;;1.90;;
30697;SDS011;17448;47.200;10.902;2022-07-03T15:55:18;2.53;;;1.88;;
30697;SDS011;17448;47.200;10.902;2022-07-03T15:57:50;2.65;;;1.85;;
30697;SDS011;17448;47.200;10.902;2022-07-03T16:00:17;2.88;;;2.00;;
30697;SDS011;17448;47.200;10.902;2022-07-03T16:05:19;2.58;;;1.65;;
30697;SDS011;17448;47.200;10.902;2022-07-03T16:07:51;5.03;;;1.85;;
30697;SDS011;17448;47.200;10.902;2022-07-03T16:10:18;3.97;;;2.05;;
30697;SDS011;17448;47.200;10.902;2022-07-03T16:12:45;2.28;;;1.50;;
30697;SDS011;17448;47.200;10.902;2022-07-03T16:15:14;3.70;;;1.95;;